• Join FlightAware (Why Join?)
  • Login
  • US Flag 
04:18PM EST


 

Airport Tracker/Info


-or-


 

Live Flight TrackerFlight Track Log ✈ CSJ915 ✈ 10-Jun-2013 ✈ CYHM - KCAK

Flight Track Log - Related Links

Times and Time Zones

All times are in EDT time to prevent confusion due to time zone crossing. See the CSJ915 flight status page for this flight to view local times or setup timezone preferences in your user account.

Time Position Orientation Groundspeed Altitude Reporting Facility
EDT Latitude Longitude Course Direction KTS MPH feet Rate Location/Type
01:23AM 43.1500 -79.9000 360° North 10 12 800  Level Toronto Center
01:24AM 43.1667 -79.9000 360° North 10 12 800  Level Toronto Center
01:25AM 43.1667 -79.9000 360° North 20 23 800  Level Toronto Center
01:29AM 43.1667 -79.9000 180° South 30 35 800 240 Level Toronto Center
01:30AM 43.1333 -79.9500 228° Southwest 110 127 2,100 1,200 Climbing Toronto Center
01:31AM 43.1167 -79.9833 236° Southwest 120 138 3,200 900 Climbing Toronto Center
01:32AM 43.0833 -80.0000 200° South 140 161 4,000 840 Climbing Toronto Center
01:33AM 43.0500 -80.0167 200° South 140 161 4,900 840 Climbing Toronto Center
01:34AM 43.0167 -80.0667 228° Southwest 130 150 5,700 720 Climbing Toronto Center
01:35AM 43.0000 -80.0833 216° Southwest 130 150 6,400 600 Climbing Toronto Center
01:36AM 42.9500 -80.1167 206° Southwest 140 161 7,000 600 Climbing Toronto Center
01:37AM 42.9167 -80.1333 200° South 140 161 7,700 480 Climbing Toronto Center
01:38AM 42.8833 -80.1500 200° South 150 173 8,000 120 Climbing Toronto Center
01:39AM 42.8533 -80.1925 226° Southwest 165 190 8,000  Level Cleveland Center
01:40AM 42.8119 -80.2208 207° Southwest 158 182 8,000  Level Cleveland Center
01:41AM 42.7722 -80.2467 206° Southwest 158 182 8,000  Level Cleveland Center
01:42AM 42.7350 -80.2722 207° Southwest 158 182 8,000 -60 Level Cleveland Center
01:43AM 42.6975 -80.2950 204° Southwest 158 182 7,900  Descending Cleveland Center
01:44AM 42.6581 -80.3233 208° Southwest 158 182 8,000  Climbing Cleveland Center
01:45AM 42.6183 -80.3492 206° Southwest 158 182 8,000 -60 Level Cleveland Center
01:46AM 42.5789 -80.3772 208° Southwest 158 182 7,900 -60 Descending Cleveland Center
01:47AM 42.5392 -80.4086 210° Southwest 163 188 7,900  Level Cleveland Center
01:48AM 42.4975 -80.4367 206° Southwest 158 182 8,000  Climbing Cleveland Center
01:49AM 42.4561 -80.4650 207° Southwest 158 182 8,000  Level Cleveland Center
01:50AM 42.4164 -80.4903 205° Southwest 158 182 8,000 -60 Level Cleveland Center
01:51AM 42.3769 -80.5158 206° Southwest 158 182 7,900  Descending Cleveland Center
01:52AM 42.3353 -80.5439 206° Southwest 158 182 8,000  Climbing Cleveland Center
01:53AM 42.2956 -80.5719 208° Southwest 158 182 8,000  Level Cleveland Center
01:54AM 42.2558 -80.5972 205° Southwest 158 182 8,000  Level Cleveland Center
01:55AM 42.2142 -80.6225 204° Southwest 158 182 8,000  Level Cleveland Center
01:56AM 42.1747 -80.6503 208° Southwest 158 182 8,000  Level Cleveland Center
01:57AM 42.1414 -80.6756 209° Southwest 158 182 8,000  Level Cleveland Center
01:58AM 42.0953 -80.7008 202° Southwest 158 182 8,000  Level Cleveland Center
01:59AM 42.0578 -80.7258 206° Southwest 158 182 8,000  Level Cleveland Center
02:00AM 42.0183 -80.7508 205° Southwest 158 182 8,000  Level Cleveland Center
02:01AM 41.9786 -80.7786 207° Southwest 158 182 8,000  Level Cleveland Center
02:02AM 41.9389 -80.8036 205° Southwest 158 182 8,000  Level Cleveland Center
02:03AM 41.8950 -80.8342 207° Southwest 158 182 8,100  Climbing Cleveland Center
02:04AM 41.8553 -80.8592 205° Southwest 158 182 8,000  Descending Cleveland Center
02:05AM 41.8158 -80.8842 205° Southwest 158 182 8,100  Climbing Cleveland Center
02:06AM 41.7739 -80.9117 206° Southwest 158 182 8,100  Level Cleveland Center
02:07AM 41.7364 -80.9367 206° Southwest 158 182 8,100  Level Cleveland Center
02:08AM 41.6967 -80.9614 205° Southwest 158 182 8,100  Level Cleveland Center
02:09AM 41.6550 -80.9861 204° Southwest 158 182 8,100  Level Cleveland Center
02:10AM 41.6172 -81.0136 209° Southwest 158 182 8,100  Level Cleveland Center
02:11AM 41.5775 -81.0383 205° Southwest 158 182 8,100 -300 Level Cleveland Center
02:12AM 41.5400 -81.0658 209° Southwest 158 182 7,500 -720 Descending Cleveland Center
02:13AM 41.4939 -81.0961 206° Southwest 167 192 6,700 -720 Descending Cleveland Center
02:14AM 41.4481 -81.1150 197° South 173 199 6,100 -720 Descending Cleveland Center
02:15AM 41.4083 -81.1450 210° Southwest 173 199 5,300 -840 Descending Cleveland Center
02:16AM 41.3644 -81.1725 205° Southwest 173 199 4,500 -720 Descending Cleveland Center
02:17AM 41.3225 -81.1997 206° Southwest 173 199 3,900 -600 Descending Cleveland Center
02:18AM 41.2786 -81.2325 209° Southwest 173 199 3,400 -360 Descending Cleveland Center
02:19AM 41.2347 -81.2514 198° South 173 199 3,200 -240 Descending Cleveland Center
02:20AM 41.1950 -81.2731 202° Southwest 167 192 3,000 -120 Descending Cleveland Center
02:21AM 41.1531 -81.2947 201° Southwest 167 192 3,000  Level Cleveland Center
02:22AM 41.1156 -81.3161 203° Southwest 167 192 3,000  Level Cleveland Center
02:23AM 41.0756 -81.3378 202° Southwest 162 186 3,000 -120 Level Cleveland Center
02:24AM 41.0339 -81.3650 206° Southwest 162 186 2,800 -300 Descending Cleveland Center
02:25AM 40.9983 -81.3836 202° Southwest 156 180 2,500 -300 Descending Cleveland Center
02:26AM 40.9564 -81.3997 196° South 156 180 2,300 -540 Descending Cleveland Center
02:27AM 40.9269 -81.4267 215° Southwest 144 166 1,500 -480 Descending Cleveland Center
02:28AM 40.8914 -81.4539 210° Southwest 136 157 1,400 -120 Descending Cleveland Center